Cockerill, Kansas
Current Conditions -  °F | °C
As of 4:35 PM on Monday 24 Nov 2014 (Local Time) from KPTS Reporting Station
Clear Clear  
Wind Chill: 44°   Ceiling: Unl
Heat Index: 48°   Visibility: 10mi
Dew Point: 28°   Wind: 9mph
Humidity: 46%   Direction: 310°NW
Pressure: 29.92"   Gusts: 17mph
Location:  37.5542°N, 94.6826°W
Report Text: KPTS 242235Z AUTO 31008G15KT 10SM CLR 09/M02 A2992 RMK AO2 T00911021
Loading
Personal Weather Stations






























Interactive Weather Map New forecast layout! Learn more

10-Day Weather Forecast

Advertisements
Track Severe Weather on mobile